Time;durP1;ratioP1;P1;durP2;ratioP2;P2;SDS_P1;SDS_P2;PMS_P1;PMS_P2;Temp;Humidity;BMP_temperature;BMP_pressure;BME280_temperature;BME280_humidity;BME280_pressure;Samples;Min_cycle;Max_cycle;Signal;HPM_P1;HPM_P2
2023/12/07 00:01:14;;;;;;;20.43;10.30;;;2.80;99.90;;;;;;5093983;28;20040;-81
2023/12/07 00:03:40;;;;;;;15.60;9.47;;;2.80;99.90;;;;;;5094903;28;20071;-81
2023/12/07 00:06:06;;;;;;;15.50;10.20;;;2.80;99.90;;;;;;5094183;28;20127;-81
2023/12/07 00:08:32;;;;;;;16.87;11.10;;;2.80;99.90;;;;;;5095021;28;20040;-81
2023/12/07 00:10:57;;;;;;;17.70;10.63;;;2.80;99.90;;;;;;5093618;28;20166;-81
2023/12/07 00:13:23;;;;;;;14.27;9.57;;;2.80;99.90;;;;;;5094009;28;20048;-81
2023/12/07 00:15:49;;;;;;;18.30;10.63;;;2.80;99.90;;;;;;5094724;28;20472;-81
2023/12/07 00:18:14;;;;;;;15.07;10.13;;;2.80;99.90;;;;;;5094490;28;20048;-81
2023/12/07 00:20:40;;;;;;;15.73;11.03;;;2.80;99.90;;;;;;5094396;28;20044;-81
2023/12/07 00:23:06;;;;;;;13.67;9.57;;;2.80;99.90;;;;;;5094190;28;20347;-81
2023/12/07 00:25:31;;;;;;;16.17;9.33;;;2.80;99.90;;;;;;5091546;28;20044;-82
2023/12/07 00:27:57;;;;;;;14.10;10.40;;;2.70;99.90;;;;;;5092405;28;20453;-82
2023/12/07 00:30:23;;;;;;;13.67;9.50;;;2.70;99.90;;;;;;5074567;28;20135;-81
2023/12/07 00:32:49;;;;;;;15.67;10.10;;;2.80;99.90;;;;;;5091179;28;20044;-82
2023/12/07 00:35:16;;;;;;;15.37;10.43;;;2.80;99.90;;;;;;5092687;28;20074;-82
2023/12/07 00:37:41;;;;;;;15.50;10.13;;;2.80;99.90;;;;;;5092431;28;20427;-81
2023/12/07 00:40:07;;;;;;;20.30;11.53;;;2.70;99.90;;;;;;5094084;28;20097;-82
2023/12/07 00:42:34;;;;;;;17.93;10.83;;;2.80;99.90;;;;;;5094352;28;20555;-81
2023/12/07 00:45:00;;;;;;;17.83;9.93;;;2.80;99.90;;;;;;5094118;28;20087;-82
2023/12/07 00:47:26;;;;;;;16.20;9.63;;;2.80;99.90;;;;;;5094371;28;20127;-82
2023/12/07 00:49:52;;;;;;;16.37;9.60;;;2.70;99.90;;;;;;5094098;28;20456;-82
2023/12/07 00:52:18;;;;;;;16.40;10.83;;;2.70;99.90;;;;;;5094118;28;20133;-82
2023/12/07 00:54:44;;;;;;;16.13;9.33;;;2.70;99.90;;;;;;5093858;28;20052;-81
2023/12/07 00:57:09;;;;;;;15.65;10.18;;;2.70;99.90;;;;;;5094228;28;20126;-82
2023/12/07 00:59:36;;;;;;;18.07;11.13;;;2.70;99.90;;;;;;5094008;28;20118;-81
2023/12/07 01:02:03;;;;;;;13.73;9.52;;;2.60;99.90;;;;;;5093612;28;20051;-82
2023/12/07 01:04:29;;;;;;;17.25;10.25;;;2.60;99.90;;;;;;5094020;28;20100;-82
2023/12/07 01:06:55;;;;;;;16.67;10.57;;;2.50;99.90;;;;;;5092458;28;20044;-81
2023/12/07 01:09:21;;;;;;;15.27;10.27;;;2.50;99.90;;;;;;5092876;28;20082;-81
2023/12/07 01:11:47;;;;;;;15.25;9.45;;;2.50;99.90;;;;;;5093247;28;20361;-82
2023/12/07 01:14:14;;;;;;;14.73;9.63;;;2.50;99.90;;;;;;5093878;28;20051;-81
2023/12/07 01:16:39;;;;;;;13.45;8.93;;;2.40;99.90;;;;;;5092496;28;20084;-80
2023/12/07 01:19:07;;;;;;;12.87;9.47;;;2.40;99.90;;;;;;5093642;28;20044;-81
2023/12/07 01:21:33;;;;;;;16.10;10.05;;;2.40;99.90;;;;;;5093544;28;20048;-80
2023/12/07 01:23:58;;;;;;;14.35;9.85;;;2.50;99.90;;;;;;5093396;28;20094;-81
2023/12/07 01:26:24;;;;;;;13.37;8.23;;;2.40;99.90;;;;;;5092837;28;20076;-81
2023/12/07 01:28:50;;;;;;;15.47;10.00;;;2.30;99.90;;;;;;5093325;28;20058;-81
2023/12/07 01:31:16;;;;;;;16.10;10.60;;;2.30;99.90;;;;;;5092584;28;20051;-81
2023/12/07 01:33:43;;;;;;;15.90;9.57;;;2.30;99.90;;;;;;5093386;28;20087;-84
2023/12/07 01:36:09;;;;;;;17.90;10.80;;;2.30;99.90;;;;;;5093416;28;20141;-81
2023/12/07 01:38:34;;;;;;;17.37;11.20;;;2.30;99.90;;;;;;5093083;28;20500;-81
2023/12/07 01:41:00;;;;;;;15.87;11.00;;;2.30;99.90;;;;;;5092850;28;20098;-81
2023/12/07 01:43:26;;;;;;;19.33;12.47;;;2.30;99.90;;;;;;5093147;28;20056;-81
2023/12/07 01:45:56;;;;;;;17.37;12.27;;;2.30;99.90;;;;;;5075516;28;20071;-81
2023/12/07 01:48:26;;;;;;;16.23;11.98;;;2.40;99.90;;;;;;5093645;28;20048;-81
2023/12/07 01:50:56;;;;;;;16.25;11.35;;;2.40;99.90;;;;;;5092087;28;20105;-81
2023/12/07 01:53:24;;;;;;;17.27;11.20;;;2.30;99.90;;;;;;5093195;28;20487;-81
2023/12/07 01:55:52;;;;;;;18.75;12.10;;;2.40;99.90;;;;;;5093035;28;20055;-82
2023/12/07 01:58:19;;;;;;;15.75;11.35;;;2.40;99.90;;;;;;5093286;28;20051;-81
2023/12/07 02:00:45;;;;;;;19.27;11.45;;;2.50;99.90;;;;;;5093086;28;20105;-81
2023/12/07 02:03:12;;;;;;;14.55;10.68;;;2.50;99.90;;;;;;5092274;28;20036;-81
2023/12/07 02:05:42;;;;;;;17.00;11.68;;;2.40;99.90;;;;;;5092171;28;20077;-81
2023/12/07 02:08:08;;;;;;;20.27;11.50;;;2.40;99.90;;;;;;5092579;28;20488;-81
2023/12/07 02:10:34;;;;;;;21.50;13.20;;;2.40;99.90;;;;;;5093138;28;20044;-81
2023/12/07 02:12:59;;;;;;;18.63;11.23;;;2.40;99.90;;;;;;5075136;28;20059;-81
2023/12/07 02:15:25;;;;;;;18.03;12.07;;;2.40;99.90;;;;;;5092114;28;20369;-80
2023/12/07 02:17:58;;;;;;;18.77;12.03;;;2.40;99.90;;;;;;5092934;28;20178;-81
2023/12/07 02:21:01;;;;;;;16.73;12.00;;;2.40;99.90;;;;;;5093115;28;20040;-81
2023/12/07 02:23:29;;;;;;;15.77;11.63;;;2.40;99.90;;;;;;5071173;28;20056;-81
2023/12/07 02:26:03;;;;;;;19.40;11.13;;;2.30;99.90;;;;;;5094333;28;20496;-81
2023/12/07 02:28:28;;;;;;;14.98;10.93;;;2.30;99.90;;;;;;5093847;28;20048;-81
2023/12/07 02:30:54;;;;;;;16.97;10.13;;;2.40;99.90;;;;;;5094501;28;20040;-81
2023/12/07 02:33:20;;;;;;;16.33;11.10;;;2.20;99.90;;;;;;5093505;28;20052;-81
2023/12/07 02:35:46;;;;;;;15.60;10.80;;;2.20;99.90;;;;;;5093915;28;20384;-81
2023/12/07 02:38:12;;;;;;;19.27;11.47;;;2.10;99.90;;;;;;5094676;28;20051;-81
2023/12/07 02:40:40;;;;;;;17.27;11.60;;;2.00;99.90;;;;;;5096128;28;20056;-80
2023/12/07 02:43:07;;;;;;;18.42;11.10;;;2.10;99.90;;;;;;5096399;28;20121;-80
2023/12/07 02:45:33;;;;;;;19.20;11.07;;;2.10;99.90;;;;;;5096446;28;20052;-81
2023/12/07 02:47:59;;;;;;;16.92;11.07;;;2.10;99.90;;;;;;5096266;28;20052;-81
2023/12/07 02:50:25;;;;;;;18.93;12.00;;;2.00;99.90;;;;;;5096644;28;20043;-81
2023/12/07 02:52:51;;;;;;;19.00;12.13;;;2.00;99.90;;;;;;5096146;28;20052;-84
2023/12/07 02:55:17;;;;;;;17.43;11.33;;;1.90;99.90;;;;;;5096303;28;20087;-81
2023/12/07 02:57:43;;;;;;;15.03;11.00;;;1.90;99.90;;;;;;5078129;28;20127;-81
2023/12/07 03:00:09;;;;;;;18.33;12.03;;;1.90;99.90;;;;;;5095734;28;20043;-81
2023/12/07 03:02:36;;;;;;;17.02;12.43;;;1.80;99.90;;;;;;5095292;28;20056;-80
2023/12/07 03:05:03;;;;;;;17.60;11.85;;;1.70;99.90;;;;;;5095981;28;20059;-81
2023/12/07 03:07:29;;;;;;;17.52;12.65;;;1.70;99.90;;;;;;5096123;28;20052;-80
2023/12/07 03:09:54;;;;;;;15.10;11.37;;;1.80;99.90;;;;;;5094887;28;20112;-81
2023/12/07 03:12:20;;;;;;;16.90;12.20;;;1.70;99.90;;;;;;5078072;28;20074;-80
2023/12/07 03:14:46;;;;;;;12.40;10.30;;;1.70;99.90;;;;;;5096079;28;20048;-80
2023/12/07 03:17:11;;;;;;;18.37;12.60;;;1.70;99.90;;;;;;5094352;28;20492;-81
2023/12/07 03:19:41;;;;;;;14.40;10.70;;;1.70;99.90;;;;;;5095591;28;20173;-80
2023/12/07 03:22:08;;;;;;;14.07;11.35;;;1.60;99.90;;;;;;5095832;28;20043;-81
2023/12/07 03:24:37;;;;;;;16.85;11.68;;;1.60;99.90;;;;;;5095860;28;20077;-81
2023/12/07 03:27:04;;;;;;;16.90;10.65;;;1.60;99.90;;;;;;5095680;28;20051;-81
2023/12/07 03:29:30;;;;;;;18.88;11.10;;;1.50;99.90;;;;;;5095790;28;20089;-81
2023/12/07 03:31:56;;;;;;;15.85;11.30;;;1.50;99.90;;;;;;5095294;28;20484;-82
2023/12/07 03:34:21;;;;;;;17.77;11.87;;;1.60;99.90;;;;;;5094342;28;20048;-81
2023/12/07 03:36:47;;;;;;;16.73;12.20;;;1.50;99.90;;;;;;5095253;28;20040;-81
2023/12/07 03:39:22;;;;;;;16.85;12.10;;;1.50;99.90;;;;;;5095314;28;20127;-81
2023/12/07 03:41:48;;;;;;;14.50;10.75;;;1.50;99.90;;;;;;5095729;28;20139;-81
2023/12/07 03:44:14;;;;;;;19.02;12.32;;;1.40;99.90;;;;;;5095303;28;20063;-81
2023/12/07 03:46:40;;;;;;;20.17;12.97;;;1.50;99.90;;;;;;5094489;28;20047;-81
2023/12/07 03:49:06;;;;;;;17.23;11.93;;;1.40;99.90;;;;;;5094020;28;20335;-81
2023/12/07 03:51:32;;;;;;;17.43;11.87;;;1.50;99.90;;;;;;5095394;28;20040;-80
2023/12/07 03:53:58;;;;;;;17.65;11.60;;;1.50;99.90;;;;;;5095122;28;20040;-82
2023/12/07 03:56:28;;;;;;;17.50;13.20;;;1.60;99.90;;;;;;5094311;28;20537;-81
2023/12/07 03:58:55;;;;;;;19.20;13.25;;;1.50;99.90;;;;;;5095347;28;20043;-81
2023/12/07 04:01:25;;;;;;;18.27;13.32;;;1.50;99.90;;;;;;5094823;28;20039;-81
2023/12/07 04:03:51;;;;;;;21.20;13.18;;;1.50;99.90;;;;;;5095075;28;20090;-81
2023/12/07 04:06:18;;;;;;;18.25;12.57;;;1.40;99.90;;;;;;5094816;28;20484;-81
2023/12/07 04:08:44;;;;;;;20.80;13.80;;;1.50;99.90;;;;;;5095041;28;20102;-81
2023/12/07 04:11:10;;;;;;;19.98;12.57;;;1.40;99.90;;;;;;5094475;28;20480;-81
2023/12/07 04:13:36;;;;;;;19.63;13.40;;;1.40;99.90;;;;;;5093916;28;20051;-81
2023/12/07 04:16:03;;;;;;;18.70;13.20;;;1.50;99.90;;;;;;5094839;28;20043;-81
2023/12/07 04:18:28;;;;;;;20.65;13.48;;;1.50;99.90;;;;;;5094760;28;20375;-81
2023/12/07 04:20:54;;;;;;;14.77;11.80;;;1.50;99.90;;;;;;5094707;28;20094;-81
2023/12/07 04:23:20;;;;;;;21.37;13.77;;;1.40;99.90;;;;;;5094479;28;20776;-81
2023/12/07 04:25:45;;;;;;;23.57;14.80;;;1.40;99.90;;;;;;5094799;28;20130;-81
2023/12/07 04:28:11;;;;;;;18.70;11.83;;;1.40;99.90;;;;;;5094466;28;20048;-81
2023/12/07 04:30:37;;;;;;;20.67;14.37;;;1.40;99.90;;;;;;5093636;28;20083;-80
2023/12/07 04:33:03;;;;;;;20.77;14.17;;;1.30;99.90;;;;;;5093158;28;20044;-81
2023/12/07 04:35:29;;;;;;;19.67;13.23;;;1.30;99.90;;;;;;5094423;28;20561;-81
2023/12/07 04:37:55;;;;;;;24.02;15.20;;;1.40;99.90;;;;;;5094425;28;20050;-81
2023/12/07 04:40:21;;;;;;;20.87;14.77;;;1.50;99.90;;;;;;5093832;28;20480;-80
2023/12/07 04:42:46;;;;;;;23.23;14.73;;;1.40;99.90;;;;;;5094428;28;20548;-80
2023/12/07 04:45:12;;;;;;;24.00;15.67;;;1.50;99.90;;;;;;5093231;28;20048;-80
2023/12/07 04:47:38;;;;;;;22.00;14.43;;;1.40;99.90;;;;;;5093977;28;20044;-80
2023/12/07 04:50:04;;;;;;;27.67;17.70;;;1.50;99.90;;;;;;5093028;28;20044;-82
2023/12/07 04:52:30;;;;;;;26.63;17.02;;;1.50;99.90;;;;;;5094093;28;20083;-81
2023/12/07 04:54:55;;;;;;;24.13;15.83;;;1.50;99.90;;;;;;5093265;28;20088;-81
2023/12/07 04:57:21;;;;;;;34.77;17.83;;;1.40;99.90;;;;;;5093840;28;20052;-81
2023/12/07 04:59:47;;;;;;;32.50;17.90;;;1.50;99.90;;;;;;5092811;28;20131;-81
2023/12/07 05:02:14;;;;;;;24.80;16.23;;;1.50;99.90;;;;;;5092458;28;20074;-81
2023/12/07 05:04:40;;;;;;;32.15;16.17;;;1.50;99.90;;;;;;5093868;28;20048;-81
2023/12/07 05:07:06;;;;;;;21.77;14.37;;;1.40;99.90;;;;;;5093641;28;20062;-81
2023/12/07 05:09:32;;;;;;;18.60;13.40;;;1.50;99.90;;;;;;5093835;28;20047;-81
2023/12/07 05:11:58;;;;;;;27.43;16.33;;;1.40;99.90;;;;;;5093777;28;20766;-81
2023/12/07 05:14:24;;;;;;;18.17;14.20;;;1.40;99.90;;;;;;5093587;28;20048;-81
2023/12/07 05:16:52;;;;;;;21.33;14.90;;;1.40;99.90;;;;;;5092679;28;20286;-81
2023/12/07 05:19:27;;;;;;;20.73;14.05;;;1.40;99.90;;;;;;5093703;28;20048;-81
2023/12/07 05:21:53;;;;;;;16.38;13.27;;;1.30;99.90;;;;;;5075808;28;20504;-81
2023/12/07 05:24:19;;;;;;;22.17;15.60;;;1.30;99.90;;;;;;5092415;28;20186;-81
2023/12/07 05:26:46;;;;;;;17.90;13.88;;;1.30;99.90;;;;;;5093532;28;20066;-81
2023/12/07 05:29:12;;;;;;;19.52;14.15;;;1.30;99.90;;;;;;5093275;28;20040;-81
2023/12/07 05:31:39;;;;;;;16.42;12.93;;;1.20;99.90;;;;;;5093160;28;20495;-81
2023/12/07 05:34:05;;;;;;;18.67;13.63;;;1.20;99.90;;;;;;5092475;28;20105;-81
2023/12/07 05:36:31;;;;;;;22.50;15.23;;;1.30;99.90;;;;;;5093278;28;20055;-81
2023/12/07 05:38:57;;;;;;;23.87;15.50;;;1.20;99.90;;;;;;5093404;28;20039;-81
2023/12/07 05:41:23;;;;;;;17.23;13.43;;;1.20;99.90;;;;;;5093055;28;20351;-82
2023/12/07 05:43:48;;;;;;;18.77;12.90;;;1.10;99.90;;;;;;5092599;28;20059;-81
2023/12/07 05:46:15;;;;;;;22.07;15.33;;;1.10;99.90;;;;;;5093222;28;20131;-81
2023/12/07 05:48:41;;;;;;;20.52;14.55;;;1.10;99.90;;;;;;5092780;28;20060;-81
2023/12/07 05:51:13;;;;;;;20.63;14.33;;;1.10;99.90;;;;;;5092451;28;20155;-81
2023/12/07 05:53:38;;;;;;;19.70;14.73;;;1.10;99.90;;;;;;5092538;28;20051;-81
2023/12/07 05:56:04;;;;;;;20.47;15.43;;;1.00;99.90;;;;;;5093318;28;20079;-81
2023/12/07 05:58:30;;;;;;;17.83;13.27;;;1.00;99.90;;;;;;5097196;28;20074;-81
2023/12/07 06:00:56;;;;;;;22.90;14.43;;;1.00;99.90;;;;;;5097375;28;20380;-81
2023/12/07 06:03:22;;;;;;;19.98;14.55;;;1.00;99.90;;;;;;5097131;28;20040;-82
2023/12/07 06:05:49;;;;;;;22.30;14.73;;;1.00;99.90;;;;;;5097282;28;20044;-81
2023/12/07 06:08:14;;;;;;;18.30;14.00;;;1.00;99.90;;;;;;5097104;28;20054;-82
2023/12/07 06:10:40;;;;;;;20.93;15.33;;;1.00;99.90;;;;;;5097264;28;20048;-81
2023/12/07 06:13:06;;;;;;;25.00;15.10;;;0.90;99.90;;;;;;5097013;28;20101;-81
2023/12/07 06:15:31;;;;;;;25.83;15.03;;;1.00;99.90;;;;;;5095822;28;20044;-82
2023/12/07 06:17:58;;;;;;;20.07;13.37;;;0.90;99.90;;;;;;5097153;28;20479;-81
2023/12/07 06:20:24;;;;;;;20.60;14.82;;;0.90;99.90;;;;;;5096851;28;20083;-82
2023/12/07 06:22:49;;;;;;;19.47;14.23;;;0.90;99.90;;;;;;5096782;28;20098;-82
2023/12/07 06:25:16;;;;;;;18.43;13.33;;;0.90;99.90;;;;;;5095540;28;20048;-83
2023/12/07 06:27:42;;;;;;;19.08;13.48;;;1.00;99.90;;;;;;5097036;28;20052;-82
2023/12/07 06:30:08;;;;;;;18.97;13.60;;;0.90;99.90;;;;;;5096620;28;20101;-82
2023/12/07 06:32:33;;;;;;;22.48;15.90;;;0.90;99.90;;;;;;5096582;28;20046;-82
2023/12/07 06:35:00;;;;;;;21.97;14.27;;;0.90;99.90;;;;;;5097104;28;20126;-82
2023/12/07 06:37:26;;;;;;;20.00;13.32;;;0.80;99.90;;;;;;5096620;28;20442;-83
2023/12/07 06:39:52;;;;;;;19.75;13.68;;;0.90;99.90;;;;;;5096741;28;20097;-82
2023/12/07 06:42:18;;;;;;;17.80;13.40;;;0.90;99.90;;;;;;5078008;28;20112;-83
2023/12/07 06:44:46;;;;;;;18.52;13.60;;;0.80;99.90;;;;;;5095707;28;20059;-83
2023/12/07 06:47:12;;;;;;;18.83;12.60;;;0.80;99.90;;;;;;5095570;28;20051;-82
2023/12/07 06:49:38;;;;;;;20.70;14.30;;;0.80;99.90;;;;;;5096407;28;20044;-82
2023/12/07 06:52:04;;;;;;;20.85;15.30;;;0.80;99.90;;;;;;5096601;28;20040;-82
2023/12/07 06:54:29;;;;;;;22.27;15.17;;;0.70;99.90;;;;;;5096367;28;20228;-82
2023/12/07 06:56:55;;;;;;;18.10;13.60;;;0.80;99.90;;;;;;5096496;28;20125;-82
2023/12/07 06:59:21;;;;;;;20.93;15.07;;;0.80;99.90;;;;;;5095179;28;20101;-83
2023/12/07 07:01:47;;;;;;;18.47;14.43;;;0.80;99.90;;;;;;5078219;28;20488;-82
2023/12/07 07:04:12;;;;;;;23.17;15.93;;;0.80;99.90;;;;;;5095317;28;20047;-82
2023/12/07 07:06:41;;;;;;;22.33;15.20;;;0.80;99.90;;;;;;5096032;28;20051;-83
2023/12/07 07:09:06;;;;;;;24.67;16.88;;;0.80;99.90;;;;;;5095538;28;20049;-83
2023/12/07 07:11:32;;;;;;;22.80;16.83;;;0.80;99.90;;;;;;5078116;28;20048;-83
2023/12/07 07:13:58;;;;;;;21.97;15.67;;;0.70;99.90;;;;;;5096127;28;20056;-83
2023/12/07 07:16:24;;;;;;;23.75;16.42;;;0.70;99.90;;;;;;5095761;28;20079;-82
2023/12/07 07:18:50;;;;;;;22.63;16.80;;;0.70;99.90;;;;;;5096256;28;20477;-83
2023/12/07 07:21:15;;;;;;;20.17;15.20;;;0.70;99.90;;;;;;5095916;28;20078;-83
2023/12/07 07:23:41;;;;;;;23.53;15.97;;;0.70;99.90;;;;;;5095406;28;20479;-83
2023/12/07 07:26:08;;;;;;;26.13;17.50;;;0.70;99.90;;;;;;5095856;28;20044;-82
2023/12/07 07:28:34;;;;;;;23.33;17.00;;;0.70;99.90;;;;;;5095867;28;20044;-83
2023/12/07 07:31:00;;;;;;;23.88;16.58;;;0.70;99.90;;;;;;5095759;28;20091;-83
2023/12/07 07:33:26;;;;;;;26.27;17.53;;;0.70;99.90;;;;;;5095662;28;20083;-82
2023/12/07 07:35:52;;;;;;;26.80;17.53;;;0.70;99.90;;;;;;5095796;28;20282;-83
2023/12/07 07:38:17;;;;;;;24.80;16.73;;;0.60;99.90;;;;;;5094675;28;20051;-83
2023/12/07 07:40:45;;;;;;;24.90;17.10;;;0.70;99.90;;;;;;5095318;28;20044;-83
2023/12/07 07:43:11;;;;;;;24.42;17.73;;;0.60;99.90;;;;;;5095736;28;20060;-83
2023/12/07 07:45:36;;;;;;;25.75;17.98;;;0.70;99.90;;;;;;5095247;28;20048;-83
2023/12/07 07:48:02;;;;;;;23.87;16.97;;;0.70;99.90;;;;;;5095702;28;20495;-83
2023/12/07 07:50:28;;;;;;;30.57;19.00;;;0.70;99.90;;;;;;5094326;28;20052;-83
2023/12/07 07:52:55;;;;;;;25.90;17.63;;;0.70;99.90;;;;;;5095552;28;20438;-83
2023/12/07 07:55:20;;;;;;;27.38;18.80;;;0.60;99.90;;;;;;5094486;28;20062;-83
2023/12/07 07:57:46;;;;;;;29.23;19.20;;;0.60;99.90;;;;;;5095157;28;20462;-83
2023/12/07 08:00:13;;;;;;;26.70;18.00;;;0.60;99.90;;;;;;5095247;28;20117;-83
2023/12/07 08:02:38;;;;;;;29.40;18.42;;;0.70;99.90;;;;;;5094781;28;20488;-82
2023/12/07 08:05:05;;;;;;;30.30;19.23;;;0.70;99.90;;;;;;5095206;28;20097;-82
2023/12/07 08:07:30;;;;;;;184.57;32.75;;;0.60;99.90;;;;;;5094865;28;20052;-82
2023/12/07 08:09:56;;;;;;;53.93;20.80;;;0.70;99.90;;;;;;5095135;28;20382;-82
2023/12/07 08:12:24;;;;;;;59.67;22.23;;;0.70;99.90;;;;;;5094097;28;20055;-82
2023/12/07 08:14:50;;;;;;;49.88;23.98;;;0.70;99.90;;;;;;5094739;28;20087;-82
2023/12/07 08:17:16;;;;;;;39.10;21.40;;;0.70;99.90;;;;;;5092938;28;20091;-84
2023/12/07 08:19:42;;;;;;;41.27;22.57;;;0.70;99.90;;;;;;5094038;28;20123;-81
2023/12/07 08:22:08;;;;;;;42.67;23.63;;;0.70;99.90;;;;;;5093151;28;20036;-82
2023/12/07 08:24:35;;;;;;;36.75;21.77;;;0.60;99.90;;;;;;5093553;28;20051;-83
2023/12/07 08:27:01;;;;;;;34.85;22.23;;;0.60;99.90;;;;;;5093712;28;20059;-83
2023/12/07 08:29:26;;;;;;;30.57;19.73;;;0.80;99.90;;;;;;5094668;28;20048;-79
2023/12/07 08:31:52;;;;;;;27.93;19.27;;;0.90;99.90;;;;;;5094365;28;20036;-80
2023/12/07 08:34:18;;;;;;;31.00;20.20;;;0.80;99.90;;;;;;5094506;28;20131;-78
2023/12/07 08:36:43;;;;;;;30.57;20.73;;;0.80;99.90;;;;;;5094334;28;20169;-78
2023/12/07 08:39:09;;;;;;;35.70;21.33;;;0.80;99.90;;;;;;5094126;28;20047;-79
2023/12/07 08:41:36;;;;;;;32.60;21.53;;;0.80;99.90;;;;;;5092737;28;20173;-80
2023/12/07 08:44:02;;;;;;;36.70;23.45;;;0.80;99.90;;;;;;5093157;28;20059;-79
2023/12/07 08:46:28;;;;;;;33.13;21.83;;;0.80;99.90;;;;;;5094313;28;20044;-79
2023/12/07 08:48:54;;;;;;;35.90;22.37;;;0.90;99.90;;;;;;5094119;28;20051;-79
2023/12/07 08:51:19;;;;;;;36.33;23.73;;;0.90;99.90;;;;;;5094232;28;20054;-79
2023/12/07 08:53:46;;;;;;;33.33;22.97;;;0.90;99.90;;;;;;5094029;28;20040;-80
2023/12/07 08:56:12;;;;;;;44.20;25.20;;;0.90;99.90;;;;;;5093222;28;20472;-79
2023/12/07 08:58:41;;;;;;;37.88;24.65;;;0.90;99.90;;;;;;5092902;28;20105;-80
2023/12/07 09:01:07;;;;;;;43.88;26.17;;;0.90;99.90;;;;;;5094013;28;20044;-79
2023/12/07 09:03:33;;;;;;;52.83;28.80;;;0.90;99.90;;;;;;5093924;28;20055;-79
2023/12/07 09:06:00;;;;;;;60.17;29.93;;;0.90;99.90;;;;;;5094216;28;20051;-79
2023/12/07 09:08:26;;;;;;;89.38;34.42;;;1.00;99.90;;;;;;5093885;28;20075;-79
2023/12/07 09:10:51;;;;;;;44.77;26.47;;;0.90;99.90;;;;;;5093728;28;20071;-79
2023/12/07 09:13:18;;;;;;;62.73;30.07;;;1.00;99.90;;;;;;5093869;28;20441;-78
2023/12/07 09:15:44;;;;;;;57.97;30.52;;;1.00;99.90;;;;;;5093631;28;20044;-80
2023/12/07 09:18:10;;;;;;;58.30;29.93;;;1.00;99.90;;;;;;5093864;28;20365;-78
2023/12/07 09:20:37;;;;;;;48.55;28.55;;;1.10;99.90;;;;;;5093486;28;20109;-80
2023/12/07 09:23:03;;;;;;;50.53;28.40;;;1.10;99.90;;;;;;5093960;28;20182;-79
2023/12/07 09:25:30;;;;;;;40.30;26.25;;;1.10;99.90;;;;;;5092669;28;20369;-78
2023/12/07 09:27:56;;;;;;;49.53;28.88;;;1.10;99.90;;;;;;5092460;28;20074;-79
2023/12/07 09:30:22;;;;;;;51.28;29.02;;;1.20;99.90;;;;;;5093807;28;20047;-79
2023/12/07 09:32:47;;;;;;;53.60;30.30;;;1.20;99.90;;;;;;5092943;28;20567;-80
2023/12/07 09:35:16;;;;;;;56.47;31.17;;;1.20;99.90;;;;;;5093442;28;20058;-78
2023/12/07 09:37:42;;;;;;;56.15;29.42;;;1.20;99.90;;;;;;5093289;28;20050;-78
2023/12/07 09:40:07;;;;;;;50.47;28.67;;;1.20;99.90;;;;;;5093432;28;20126;-77
2023/12/07 09:42:34;;;;;;;57.15;31.55;;;1.30;99.90;;;;;;5092932;28;20557;-77
2023/12/07 09:45:01;;;;;;;53.17;28.13;;;1.30;99.90;;;;;;5093096;28;20055;-78
2023/12/07 09:47:28;;;;;;;51.28;29.10;;;1.30;99.90;;;;;;5093168;28;20044;-78
2023/12/07 09:49:53;;;;;;;47.88;28.08;;;1.40;99.90;;;;;;5091353;28;20044;-77
2023/12/07 09:52:22;;;;;;;46.13;27.80;;;1.40;99.90;;;;;;5093244;28;20468;-76
2023/12/07 09:54:50;;;;;;;51.92;27.23;;;1.50;99.90;;;;;;5093155;28;20443;-79
2023/12/07 09:57:16;;;;;;;43.90;27.10;;;1.40;99.90;;;;;;5093243;28;20048;-78
2023/12/07 09:59:41;;;;;;;46.90;27.50;;;1.50;99.90;;;;;;5093070;28;20109;-78
2023/12/07 10:02:07;;;;;;;46.30;26.97;;;1.60;99.90;;;;;;5091949;28;20044;-78
2023/12/07 10:04:33;;;;;;;50.05;28.40;;;1.50;99.90;;;;;;5093163;28;20432;-78
2023/12/07 10:06:59;;;;;;;45.50;28.10;;;1.60;99.90;;;;;;5092958;28;20052;-77
2023/12/07 10:09:26;;;;;;;49.70;29.53;;;1.70;99.90;;;;;;5093161;28;20036;-77
2023/12/07 10:12:05;;;;;;;55.28;29.90;;;1.60;99.90;;;;;;5092685;28;20542;-77
2023/12/07 10:14:32;;;;;;;48.92;30.80;;;1.80;99.90;;;;;;5092171;28;20044;-77
2023/12/07 10:16:57;;;;;;;46.70;28.88;;;1.70;99.90;;;;;;5092933;28;20053;-78
2023/12/07 10:19:24;;;;;;;51.17;30.20;;;1.80;99.90;;;;;;5093181;28;20442;-77
2023/12/07 10:21:51;;;;;;;63.00;32.38;;;1.80;99.90;;;;;;5092875;28;20123;-79
2023/12/07 10:24:21;;;;;;;54.47;30.75;;;1.70;99.90;;;;;;5093100;28;20055;-79
2023/12/07 10:26:49;;;;;;;50.45;29.85;;;1.80;99.90;;;;;;5092641;28;20051;-80
2023/12/07 10:29:17;;;;;;;58.28;33.00;;;1.90;99.90;;;;;;5092558;28;20092;-78
2023/12/07 10:31:43;;;;;;;56.53;32.47;;;1.90;99.90;;;;;;5092389;28;20067;-82
2023/12/07 10:34:09;;;;;;;55.72;31.75;;;1.90;99.90;;;;;;5092936;28;20056;-81
2023/12/07 10:36:35;;;;;;;47.67;30.07;;;2.00;99.90;;;;;;5093162;28;20458;-79
2023/12/07 10:39:06;;;;;;;56.40;32.67;;;2.00;99.90;;;;;;5092775;28;20047;-78
2023/12/07 10:41:33;;;;;;;46.55;30.23;;;2.10;99.90;;;;;;5091756;28;20067;-77
2023/12/07 10:44:06;;;;;;;52.85;31.75;;;2.10;99.90;;;;;;5094156;28;20059;-79
2023/12/07 10:46:38;;;;;;;45.90;28.98;;;2.20;99.90;;;;;;5095499;28;20055;-76
2023/12/07 10:49:10;;;;;;;48.40;30.52;;;2.50;99.90;;;;;;5096536;28;20052;-81
2023/12/07 10:51:45;;;;;;;49.97;30.90;;;2.30;99.90;;;;;;5096630;28;20105;-80
2023/12/07 10:54:16;;;;;;;44.60;28.38;;;2.30;99.90;;;;;;5096630;28;20048;-81
2023/12/07 10:56:45;;;;;;;38.53;27.10;;;2.20;99.90;;;;;;5096712;28;20441;-78
2023/12/07 10:59:15;;;;;;;43.30;28.38;;;2.30;99.90;;;;;;5096322;28;20043;-79
2023/12/07 11:01:42;;;;;;;49.13;29.42;;;2.30;99.90;;;;;;5096222;28;20040;-78
2023/12/07 11:04:14;;;;;;;49.35;30.48;;;2.30;99.90;;;;;;5096132;28;20383;-80
2023/12/07 11:06:40;;;;;;;47.88;29.88;;;2.30;99.90;;;;;;5096344;28;20043;-81
2023/12/07 11:09:10;;;;;;;43.20;29.17;;;2.30;99.90;;;;;;5096054;28;20480;-81
2023/12/07 11:12:05;;;;;;;44.42;28.08;;;2.40;99.90;;;;;;5096204;28;20044;-80
2023/12/07 11:14:31;;;;;;;42.22;27.23;;;2.40;99.90;;;;;;5095110;28;20091;-80
2023/12/07 11:16:58;;;;;;;43.77;25.50;;;2.50;99.90;;;;;;5095582;28;20149;-80
2023/12/07 11:19:33;;;;;;;38.72;26.52;;;2.50;99.90;;;;;;5078305;28;20047;-79
2023/12/07 11:22:07;;;;;;;42.72;24.98;;;2.50;99.90;;;;;;5095743;28;20048;-79
2023/12/07 11:24:33;;;;;;;39.95;26.10;;;2.50;99.90;;;;;;5096022;28;20193;-79
2023/12/07 11:26:58;;;;;;;37.20;26.73;;;2.50;99.90;;;;;;5095675;28;20123;-80
2023/12/07 11:29:26;;;;;;;36.80;25.97;;;2.50;99.90;;;;;;5095872;28;20388;-78
2023/12/07 11:31:55;;;;;;;36.72;25.98;;;2.50;99.90;;;;;;5095569;28;20051;-80
2023/12/07 11:34:40;;;;;;;37.35;26.77;;;2.60;99.90;;;;;;5094563;28;20560;-76
2023/12/07 11:37:07;;;;;;;37.85;26.92;;;2.50;99.90;;;;;;5095580;28;20071;-80
2023/12/07 11:39:37;;;;;;;39.38;26.55;;;2.60;99.90;;;;;;5095655;28;20040;-77
2023/12/07 11:42:10;;;;;;;40.55;26.85;;;2.60;99.90;;;;;;5095200;28;20187;-77
2023/12/07 11:44:41;;;;;;;37.33;26.73;;;2.60;99.90;;;;;;5095846;28;20059;-77
2023/12/07 11:47:08;;;;;;;34.80;25.83;;;2.60;99.90;;;;;;5094373;28;20383;-76
2023/12/07 11:49:34;;;;;;;40.22;27.70;;;2.60;99.90;;;;;;5095460;28;20048;-76
2023/12/07 11:52:00;;;;;;;39.67;27.37;;;2.60;99.90;;;;;;5095227;28;20046;-77
2023/12/07 11:54:28;;;;;;;38.55;27.20;;;2.70;99.90;;;;;;5095150;28;20400;-76
2023/12/07 11:56:55;;;;;;;41.03;27.25;;;2.50;99.90;;;;;;5095160;28;20048;-78
2023/12/07 11:59:22;;;;;;;32.63;23.88;;;2.50;99.90;;;;;;5077427;28;20543;-77
2023/12/07 12:01:48;;;;;;;36.30;25.30;;;2.40;99.90;;;;;;5095071;28;20560;-76
2023/12/07 12:04:17;;;;;;;39.55;24.70;;;2.30;99.90;;;;;;5094940;28;20059;-72
2023/12/07 12:06:44;;;;;;;42.42;26.08;;;2.30;99.90;;;;;;5095043;28;20173;-77
2023/12/07 12:09:18;;;;;;;40.63;25.38;;;2.20;99.90;;;;;;5094805;28;20134;-76
2023/12/07 12:11:47;;;;;;;52.83;26.73;;;2.10;99.90;;;;;;5095063;28;20040;-76
2023/12/07 12:14:20;;;;;;;40.33;24.55;;;2.10;99.90;;;;;;5094491;28;20549;-76
2023/12/07 12:16:46;;;;;;;48.17;25.85;;;2.00;99.90;;;;;;5094986;28;20047;-76
2023/12/07 12:19:16;;;;;;;82.82;25.65;;;2.00;99.90;;;;;;5094761;28;20082;-76
2023/12/07 12:21:43;;;;;;;85.13;25.17;;;2.00;99.90;;;;;;5094972;28;20039;-76
2023/12/07 12:24:10;;;;;;;159.25;27.83;;;1.80;99.90;;;;;;5094601;28;20061;-77
2023/12/07 12:26:39;;;;;;;138.43;27.30;;;1.70;99.90;;;;;;5093816;28;20059;-80
2023/12/07 12:29:08;;;;;;;119.05;28.83;;;1.60;99.90;;;;;;5094453;28;20093;-79
2023/12/07 12:31:34;;;;;;;141.88;28.13;;;1.60;99.90;;;;;;5094693;28;20047;-79
2023/12/07 12:34:05;;;;;;;138.23;28.30;;;1.50;99.90;;;;;;5094280;28;20135;-76
2023/12/07 12:36:31;;;;;;;103.25;29.75;;;1.40;99.90;;;;;;5094394;28;20055;-75